Time;durP1;ratioP1;P1;durP2;ratioP2;P2;SDS_P1;SDS_P2;PMS_P1;PMS_P2;Temp;Humidity;BMP_temperature;BMP_pressure;BME280_temperature;BME280_humidity;BME280_pressure;Samples;Min_cycle;Max_cycle;Signal;HPM_P1;HPM_P2
2022/10/20 00:01:16;;;;;;;;;;;;;;;15.78;60.94;100608.84;4933118;28;8349;-80
2022/10/20 00:03:43;;;;;;;;;;;;;;;15.77;60.53;100607.09;4910873;28;8625;-80
2022/10/20 00:06:16;;;;;;;;;;;;;;;15.77;61.35;100601.06;4940737;28;6852;-80
2022/10/20 00:08:43;;;;;;;;;;;;;;;15.75;61.06;100594.97;4927216;28;7078;-80
2022/10/20 00:11:12;;;;;;;;;;;;;;;15.73;60.76;100588.88;4925090;28;8363;-81
2022/10/20 00:13:40;;;;;;;;;;;;;;;15.72;60.78;100587.13;4938335;28;7032;-80
2022/10/20 00:16:06;;;;;;;;;;;;;;;15.70;61.19;100587.09;4939823;28;6824;-80
2022/10/20 00:18:32;;;;;;;;;;;;;;;15.71;60.78;100581.09;4925513;28;10000;-81
2022/10/20 00:20:58;;;;;;;;;;;;;;;15.71;61.42;100577.63;4918335;28;8524;-81
2022/10/20 00:23:24;;;;;;;;;;;;;;;15.69;60.80;100565.53;4909172;28;6959;-80
2022/10/20 00:26:03;;;;;;;;;;;;;;;15.70;61.30;100563.84;4932495;28;7333;-80
2022/10/20 00:28:29;;;;;;;;;;;;;;;15.69;61.30;100562.94;4916881;28;7041;-81
2022/10/20 00:30:55;;;;;;;;;;;;;;;15.69;60.96;100560.38;4918399;28;7395;-80
2022/10/20 00:33:22;;;;;;;;;;;;;;;15.70;61.43;100569.00;4937429;28;6969;-80
2022/10/20 00:35:47;;;;;;;;;;;;;;;15.69;61.15;100565.53;4929517;28;8437;-80
2022/10/20 00:38:13;;;;;;;;;;;;;;;15.71;61.22;100562.13;4937436;28;6844;-80
2022/10/20 00:40:39;;;;;;;;;;;;;;;15.69;61.18;100567.22;4928082;28;8316;-81
2022/10/20 00:43:11;;;;;;;;;;;;;;;15.70;61.52;100563.84;4928122;28;8466;-80
2022/10/20 00:45:37;;;;;;;;;;;;;;;15.69;61.26;100557.78;4938780;28;7411;-80
2022/10/20 00:48:15;;;;;;;;;;;;;;;15.71;61.66;100564.69;4937176;28;8760;-79
2022/10/20 00:50:55;;;;;;;;;;;;;;;15.69;61.71;100578.44;4934496;28;6804;-79
2022/10/20 00:53:26;;;;;;;;;;;;;;;15.72;61.55;100566.44;4941867;28;7216;-80
2022/10/20 00:55:56;;;;;;;;;;;;;;;15.72;61.58;100566.44;4919306;28;8531;-80
2022/10/20 00:58:24;;;;;;;;;;;;;;;15.72;61.18;100557.00;4939679;28;6871;-80
2022/10/20 01:00:55;;;;;;;;;;;;;;;15.73;61.63;100557.84;4935795;28;7200;-80
2022/10/20 01:03:29;;;;;;;;;;;;;;;15.73;61.92;100550.13;4938023;28;6812;-80
2022/10/20 01:05:54;;;;;;;;;;;;;;;15.71;61.61;100534.59;4914541;28;8324;-79
2022/10/20 01:08:20;;;;;;;;;;;;;;;15.71;61.11;100534.59;4939366;28;6986;-80
2022/10/20 01:11:24;;;;;;;;;;;;;;;15.71;61.36;100528.53;4922344;28;7180;-80
2022/10/20 01:14:04;;;;;;;;;;;;;;;15.71;61.33;100523.34;4939303;28;7063;-81
2022/10/20 01:17:07;;;;;;;;;;;;;;;15.70;61.83;100527.66;4936472;28;8618;-80
2022/10/20 01:20:07;;;;;;;;;;;;;;;15.68;61.07;100513.81;4942066;28;7398;-80
2022/10/20 01:23:03;;;;;;;;;;;;;;;15.65;61.52;100509.44;4937651;28;7490;-80
2022/10/20 01:26:17;;;;;;;;;;;;;;;15.65;61.72;100511.16;4938953;28;6836;-80
2022/10/20 01:29:19;;;;;;;;;;;;;;;15.65;61.64;100504.28;4942622;28;6845;-80
2022/10/20 01:32:18;;;;;;;;;;;;;;;15.66;61.67;100494.81;4927403;28;6984;-80
2022/10/20 01:35:04;;;;;;;;;;;;;;;15.64;61.85;100493.88;4942433;28;7202;-80
2022/10/20 01:37:52;;;;;;;;;;;;;;;15.65;62.07;100498.22;4938845;28;6961;-80
2022/10/20 01:40:30;;;;;;;;;;;;;;;15.65;61.47;100487.88;4913427;28;7253;-80
2022/10/20 01:43:03;;;;;;;;;;;;;;;15.65;61.46;100488.78;4928331;28;8513;-81
2022/10/20 01:45:33;;;;;;;;;;;;;;;15.67;61.56;100492.28;4938531;28;6996;-80
2022/10/20 01:48:04;;;;;;;;;;;;;;;15.68;61.85;100488.84;4928970;28;6959;-80
2022/10/20 01:50:34;;;;;;;;;;;;;;;15.71;61.87;100482.03;4911691;28;8381;-80
2022/10/20 01:53:01;;;;;;;;;;;;;;;15.72;61.67;100463.97;4937543;28;8728;-80
2022/10/20 01:55:27;;;;;;;;;;;;;;;15.73;61.63;100457.09;4927708;28;7318;-80
2022/10/20 01:58:21;;;;;;;;;;;;;;;15.76;61.56;100467.53;4921449;28;8374;-80
2022/10/20 02:00:51;;;;;;;;;;;;;;;15.76;61.85;100454.63;4936958;28;7178;-80
2022/10/20 02:03:58;;;;;;;;;;;;;;;15.79;62.27;100452.09;4938754;28;7449;-80
2022/10/20 02:06:45;;;;;;;;;;;;;;;15.81;62.05;100463.34;4922113;28;8914;-80
2022/10/20 02:09:32;;;;;;;;;;;;;;;15.84;62.29;100458.28;4927786;28;8682;-80
2022/10/20 02:12:08;;;;;;;;;;;;;;;15.87;61.88;100460.06;4923904;29;8639;-80
2022/10/20 02:14:36;;;;;;;;;;;;;;;15.90;62.19;100465.34;4935521;28;6999;-80
2022/10/20 02:17:13;;;;;;;;;;;;;;;15.92;62.04;100461.97;4936209;28;6975;-80
2022/10/20 02:19:43;;;;;;;;;;;;;;;15.95;61.88;100458.59;4937277;28;6812;-80
2022/10/20 02:22:13;;;;;;;;;;;;;;;15.99;61.82;100459.56;4931446;28;8738;-80
2022/10/20 02:24:41;;;;;;;;;;;;;;;16.00;61.91;100446.69;4920084;28;6956;-81
2022/10/20 02:27:24;;;;;;;;;;;;;;;16.00;61.57;100438.94;4922234;28;8550;-80
2022/10/20 02:30:12;;;;;;;;;;;;;;;16.01;62.34;100445.84;4924569;28;6982;-80
2022/10/20 02:32:43;;;;;;;;;;;;;;;16.04;61.77;100445.06;4936809;28;11823;-80
2022/10/20 02:35:13;;;;;;;;;;;;;;;16.04;62.03;100443.31;4932541;28;7271;-80
2022/10/20 02:37:39;;;;;;;;;;;;;;;16.05;61.73;100444.22;4926261;28;7147;-78
2022/10/20 02:40:06;;;;;;;;;;;;;;;16.07;61.93;100439.94;4938519;28;6887;-78
2022/10/20 02:42:31;;;;;;;;;;;;;;;16.06;61.54;100436.47;4921163;28;6974;-78
2022/10/20 02:44:57;;;;;;;;;;;;;;;16.07;61.65;100434.78;4936277;28;7025;-78
2022/10/20 02:47:22;;;;;;;;;;;;;;;16.09;61.77;100435.69;4933593;28;6780;-78
2022/10/20 02:49:48;;;;;;;;;;;;;;;16.10;61.77;100435.75;4930850;28;8447;-79
2022/10/20 02:52:14;;;;;;;;;;;;;;;16.11;62.03;100426.25;4937288;28;6772;-79
2022/10/20 02:54:39;;;;;;;;;;;;;;;16.11;61.70;100410.75;4938910;28;6773;-80
2022/10/20 02:57:05;;;;;;;;;;;;;;;16.13;62.00;100414.28;4908348;28;8771;-78
2022/10/20 02:59:31;;;;;;;;;;;;;;;16.14;61.52;100404.78;4936771;28;6768;-79
2022/10/20 03:01:56;;;;;;;;;;;;;;;16.15;61.70;100401.34;4938551;28;6780;-78
2022/10/20 03:04:22;;;;;;;;;;;;;;;16.16;61.61;100401.41;4936626;28;6992;-78
2022/10/20 03:06:48;;;;;;;;;;;;;;;16.15;61.39;100396.19;4918875;28;7020;-78
2022/10/20 03:09:13;;;;;;;;;;;;;;;16.16;61.62;100401.41;4941032;28;6788;-77
2022/10/20 03:11:40;;;;;;;;;;;;;;;16.16;61.72;100397.94;4933899;28;7090;-79
2022/10/20 03:14:05;;;;;;;;;;;;;;;16.18;61.31;100399.72;4912767;29;7246;-78
2022/10/20 03:16:31;;;;;;;;;;;;;;;16.18;61.52;100391.97;4937436;28;6970;-79
2022/10/20 03:18:57;;;;;;;;;;;;;;;16.18;61.36;100381.63;4934892;28;6799;-78
2022/10/20 03:21:22;;;;;;;;;;;;;;;16.20;61.86;100373.94;4922387;28;6788;-78
2022/10/20 03:23:48;;;;;;;;;;;;;;;16.20;61.41;100379.94;4936454;28;7089;-79
2022/10/20 03:26:14;;;;;;;;;;;;;;;16.21;61.26;100373.09;4921590;28;7005;-81
2022/10/20 03:28:40;;;;;;;;;;;;;;;16.22;61.59;100373.13;4925656;28;8446;-78
2022/10/20 03:31:06;;;;;;;;;;;;;;;16.23;61.30;100368.81;4934079;28;7290;-78
2022/10/20 03:33:32;;;;;;;;;;;;;;;16.24;61.17;100361.09;4935803;28;6853;-79
2022/10/20 03:35:58;;;;;;;;;;;;;;;16.26;61.44;100360.25;4929520;29;6912;-78
2022/10/20 03:38:24;;;;;;;;;;;;;;;16.24;61.24;100350.75;4918062;29;8301;-78
2022/10/20 03:40:49;;;;;;;;;;;;;;;16.23;61.47;100361.94;4920695;29;7154;-81
2022/10/20 03:43:15;;;;;;;;;;;;;;;16.23;61.03;100366.22;4934028;28;8448;-77
2022/10/20 03:45:41;;;;;;;;;;;;;;;16.24;61.45;100373.16;4929868;28;6780;-77
2022/10/20 03:48:08;;;;;;;;;;;;;;;16.23;60.86;100361.94;4935323;28;6844;-79
2022/10/20 03:50:40;;;;;;;;;;;;;;;16.22;61.14;100336.94;4920347;29;7198;-78
2022/10/20 03:53:07;;;;;;;;;;;;;;;16.22;61.17;100344.69;4926457;28;7256;-79
2022/10/20 03:55:33;;;;;;;;;;;;;;;16.20;60.83;100355.81;4925318;29;7148;-78
2022/10/20 03:57:59;;;;;;;;;;;;;;;16.20;60.91;100343.75;4934321;28;6801;-78
2022/10/20 04:00:25;;;;;;;;;;;;;;;16.18;61.43;100342.00;4934557;28;8426;-79
2022/10/20 04:02:51;;;;;;;;;;;;;;;16.18;60.79;100335.09;4933359;28;6768;-81
2022/10/20 04:05:19;;;;;;;;;;;;;;;16.17;60.86;100330.75;4937637;28;6954;-79
2022/10/20 04:07:46;;;;;;;;;;;;;;;16.17;61.04;100322.13;4921990;28;7001;-79
2022/10/20 04:10:14;;;;;;;;;;;;;;;16.17;61.15;100312.66;4933530;28;6812;-77
2022/10/20 04:12:40;;;;;;;;;;;;;;;16.17;60.97;100320.41;4936468;28;8498;-77
2022/10/20 04:15:08;;;;;;;;;;;;;;;16.17;61.38;100328.19;4938184;28;7300;-78
2022/10/20 04:17:35;;;;;;;;;;;;;;;16.18;61.15;100316.13;4934741;28;7199;-79
2022/10/20 04:20:02;;;;;;;;;;;;;;;16.18;61.00;100309.22;4931556;28;6816;-79
2022/10/20 04:22:28;;;;;;;;;;;;;;;16.18;61.03;100303.22;4934006;28;7271;-79
2022/10/20 04:24:54;;;;;;;;;;;;;;;16.17;61.06;100302.31;4918430;29;7008;-80
2022/10/20 04:27:20;;;;;;;;;;;;;;;16.20;61.02;100301.53;4919999;29;7155;-79
2022/10/20 04:29:46;;;;;;;;;;;;;;;16.19;61.31;100299.78;4921843;29;8526;-80
2022/10/20 04:32:11;;;;;;;;;;;;;;;16.20;60.80;100294.63;4936857;28;7011;-81
2022/10/20 04:34:37;;;;;;;;;;;;;;;16.21;60.78;100283.44;4933896;28;6931;-79
2022/10/20 04:37:03;;;;;;;;;;;;;;;16.21;61.04;100286.03;4935840;28;6804;-80
2022/10/20 04:39:29;;;;;;;;;;;;;;;16.22;61.02;100285.22;4918744;28;8461;-80
2022/10/20 04:41:54;;;;;;;;;;;;;;;16.23;60.89;100292.13;4938091;28;7078;-80
2022/10/20 04:44:20;;;;;;;;;;;;;;;16.23;60.98;100280.91;4937919;28;8247;-79
2022/10/20 04:46:45;;;;;;;;;;;;;;;16.23;60.61;100278.31;4938622;28;6840;-78
2022/10/20 04:49:11;;;;;;;;;;;;;;;16.20;60.94;100271.34;4941360;28;6776;-78
2022/10/20 04:51:37;;;;;;;;;;;;;;;16.20;60.80;100273.94;4936426;28;6968;-80
2022/10/20 04:54:03;;;;;;;;;;;;;;;16.20;60.72;100273.94;4936311;28;7826;-81
2022/10/20 04:56:28;;;;;;;;;;;;;;;16.19;60.71;100269.59;4939013;28;7196;-79
2022/10/20 04:58:57;;;;;;;;;;;;;;;16.16;60.76;100259.22;4931408;28;8844;-79
2022/10/20 05:01:27;;;;;;;;;;;;;;;16.16;60.88;100260.91;4922810;28;7305;-79
2022/10/20 05:03:53;;;;;;;;;;;;;;;16.15;60.91;100261.75;4942657;28;7007;-79
2022/10/20 05:06:31;;;;;;;;;;;;;;;16.12;60.67;100262.53;4920176;28;8418;-80
2022/10/20 05:09:01;;;;;;;;;;;;;;;16.10;60.36;100259.94;4937633;28;7358;-79
2022/10/20 05:11:30;;;;;;;;;;;;;;;16.10;60.88;100262.53;4938720;28;7157;-79
2022/10/20 05:13:56;;;;;;;;;;;;;;;16.10;60.75;100253.88;4937999;28;7064;-78
2022/10/20 05:16:23;;;;;;;;;;;;;;;16.09;60.45;100244.38;4938619;28;6965;-79
2022/10/20 05:18:51;;;;;;;;;;;;;;;16.07;60.64;100241.75;4922907;28;7324;-79
2022/10/20 05:21:21;;;;;;;;;;;;;;;16.06;60.98;100239.16;4925928;28;8660;-79
2022/10/20 05:23:47;;;;;;;;;;;;;;;16.05;60.75;100240.84;4922655;28;7126;-79
2022/10/20 05:26:17;;;;;;;;;;;;;;;16.06;60.53;100242.59;4937890;28;7003;-78
2022/10/20 05:28:47;;;;;;;;;;;;;;;16.06;60.68;100244.31;4929759;28;8378;-79
2022/10/20 05:31:14;;;;;;;;;;;;;;;16.07;60.89;100243.47;4927507;28;6986;-79
2022/10/20 05:33:47;;;;;;;;;;;;;;;16.08;60.84;100237.47;4932092;28;7062;-80
2022/10/20 05:36:15;;;;;;;;;;;;;;;16.07;60.77;100233.16;4904185;28;8517;-79
2022/10/20 05:38:41;;;;;;;;;;;;;;;16.08;60.61;100229.72;4935171;28;6800;-79
2022/10/20 05:41:17;;;;;;;;;;;;;;;16.09;61.09;100229.75;4937341;28;9641;-79
2022/10/20 05:43:56;;;;;;;;;;;;;;;16.09;60.45;100219.44;4923467;28;8419;-80
2022/10/20 05:46:23;;;;;;;;;;;;;;;16.09;60.48;100222.00;4921614;28;8431;-79
2022/10/20 05:48:54;;;;;;;;;;;;;;;16.09;60.05;100213.38;4934697;28;6848;-77
2022/10/20 05:51:23;;;;;;;;;;;;;;;16.11;60.54;100216.84;4926878;28;6969;-79
2022/10/20 05:53:51;;;;;;;;;;;;;;;16.10;60.86;100212.53;4925311;28;7761;-79
2022/10/20 05:56:20;;;;;;;;;;;;;;;16.12;60.51;100210.84;4938554;28;6808;-80
2022/10/20 05:58:47;;;;;;;;;;;;;;;16.13;60.59;100224.66;4927687;28;7227;-79
2022/10/20 06:01:19;;;;;;;;;;;;;;;16.13;60.97;100222.94;4918914;28;7016;-80
2022/10/20 06:03:55;;;;;;;;;;;;;;;16.16;60.33;100224.72;4928208;28;6812;-78
2022/10/20 06:06:27;;;;;;;;;;;;;;;16.17;60.61;100218.69;4936042;28;7228;-79
2022/10/20 06:08:56;;;;;;;;;;;;;;;16.18;60.81;100233.41;4935412;28;6927;-81
2022/10/20 06:11:23;;;;;;;;;;;;;;;16.19;60.37;100233.41;4937440;28;6986;-78
2022/10/20 06:13:50;;;;;;;;;;;;;;;16.21;60.57;100234.31;4934189;28;6800;-79
2022/10/20 06:16:22;;;;;;;;;;;;;;;16.23;60.47;100235.25;4921985;28;8526;-79
2022/10/20 06:18:49;;;;;;;;;;;;;;;16.26;60.62;100241.31;4937056;28;7208;-78
2022/10/20 06:21:19;;;;;;;;;;;;;;;16.27;60.49;100233.56;4919617;28;7000;-78
2022/10/20 06:23:45;;;;;;;;;;;;;;;16.31;60.42;100231.94;4924979;28;6830;-78
2022/10/20 06:26:16;;;;;;;;;;;;;;;16.33;60.50;100232.88;4934719;28;6970;-78
2022/10/20 06:28:44;;;;;;;;;;;;;;;16.35;60.44;100244.09;4919677;28;7206;-79
2022/10/20 06:31:17;;;;;;;;;;;;;;;16.37;60.52;100247.59;4938732;28;6800;-79
2022/10/20 06:33:43;;;;;;;;;;;;;;;16.39;60.30;100253.66;4927600;28;6981;-79
2022/10/20 06:36:09;;;;;;;;;;;;;;;16.41;60.57;100251.97;4922699;28;6781;-79
2022/10/20 06:38:37;;;;;;;;;;;;;;;16.43;60.20;100229.63;4936394;28;7622;-78
2022/10/20 06:41:05;;;;;;;;;;;;;;;16.45;60.13;100227.06;4935699;28;7150;-80
2022/10/20 06:43:31;;;;;;;;;;;;;;;16.46;60.12;100242.63;4920962;28;7101;-79
2022/10/20 06:46:01;;;;;;;;;;;;;;;16.46;60.36;100252.97;4934251;28;7077;-78
2022/10/20 06:48:27;;;;;;;;;;;;;;;16.50;60.39;100253.91;4920742;28;8417;-80
2022/10/20 06:51:03;;;;;;;;;;;;;;;16.51;60.24;100251.38;4934468;28;7107;-78
2022/10/20 06:53:30;;;;;;;;;;;;;;;16.54;60.31;100266.06;4921954;28;7290;-78
2022/10/20 06:56:02;;;;;;;;;;;;;;;16.58;60.14;100274.75;4935305;28;7231;-78
2022/10/20 06:58:28;;;;;;;;;;;;;;;16.60;59.73;100275.66;4929598;28;6860;-79
2022/10/20 07:01:11;;;;;;;;;;;;;;;16.63;60.12;100281.78;4921488;28;6977;-79
2022/10/20 07:03:38;;;;;;;;;;;;;;;16.65;59.96;100284.41;4922958;28;8547;-79
2022/10/20 07:06:06;;;;;;;;;;;;;;;16.70;59.66;100292.25;4934615;28;7296;-79
2022/10/20 07:08:35;;;;;;;;;;;;;;;16.71;59.74;100292.31;4918958;28;7470;-80
2022/10/20 07:11:06;;;;;;;;;;;;;;;16.75;60.01;100280.28;4930060;28;6812;-80
2022/10/20 07:13:34;;;;;;;;;;;;;;;16.78;59.65;100259.66;4936886;28;7215;-78
2022/10/20 07:16:00;;;;;;;;;;;;;;;16.82;59.72;100279.56;4918061;29;8593;-79
2022/10/20 07:18:27;;;;;;;;;;;;;;;16.87;59.35;100271.91;4934950;28;7895;-79
2022/10/20 07:20:59;;;;;;;;;;;;;;;16.93;59.56;100264.25;4926865;28;6863;-79
2022/10/20 07:23:27;;;;;;;;;;;;;;;16.99;59.43;100268.69;4928775;28;7046;-79
2022/10/20 07:26:03;;;;;;;;;;;;;;;17.03;59.57;100276.56;4933765;28;6964;-79
2022/10/20 07:28:29;;;;;;;;;;;;;;;17.09;59.24;100270.66;4920673;28;8519;-79
2022/10/20 07:30:54;;;;;;;;;;;;;;;17.14;59.42;100283.69;4933835;28;6780;-80
2022/10/20 07:33:20;;;;;;;;;;;;;;;17.18;59.37;100265.63;4930793;28;7374;-79
2022/10/20 07:35:48;;;;;;;;;;;;;;;17.22;59.69;100274.34;4932500;28;6942;-79
2022/10/20 07:38:14;;;;;;;;;;;;;;;17.29;59.48;100281.38;4929622;28;6868;-79
2022/10/20 07:40:40;;;;;;;;;;;;;;;17.35;59.25;100288.41;4927303;29;6854;-79
2022/10/20 07:43:05;;;;;;;;;;;;;;;17.42;59.23;100289.38;4914238;28;8822;-79
2022/10/20 07:45:31;;;;;;;;;;;;;;;17.51;59.13;100289.53;4933649;28;6933;-79
2022/10/20 07:47:58;;;;;;;;;;;;;;;17.62;59.19;100279.34;4930302;28;8519;-79
2022/10/20 07:50:24;;;;;;;;;;;;;;;17.71;59.31;100289.00;4929938;28;7201;-80
2022/10/20 07:52:51;;;;;;;;;;;;;;;17.80;59.06;100283.97;4901251;28;8554;-80
2022/10/20 07:55:17;;;;;;;;;;;;;;;17.89;59.09;100278.94;4922999;29;7238;-79
2022/10/20 07:57:43;;;;;;;;;;;;;;;17.97;58.91;100276.47;4922914;28;7510;-80
2022/10/20 08:00:10;;;;;;;;;;;;;;;18.05;58.34;100266.22;4930862;28;6781;-79
2022/10/20 08:02:35;;;;;;;;;;;;;;;18.12;58.69;100265.47;4915287;29;12937;-79
2022/10/20 08:05:01;;;;;;;;;;;;;;;18.21;58.41;100261.28;4931540;28;6919;-80
2022/10/20 08:07:27;;;;;;;;;;;;;;;18.27;57.95;100264.84;4925764;29;6855;-79
2022/10/20 08:09:52;;;;;;;;;;;;;;;18.35;57.58;100259.78;4930680;28;8637;-79
2022/10/20 08:12:18;;;;;;;;;;;;;;;18.39;57.64;100245.97;4927317;28;7076;-79
2022/10/20 08:14:43;;;;;;;;;;;;;;;18.44;57.40;100239.09;4936603;28;6788;-80
2022/10/20 08:17:09;;;;;;;;;;;;;;;18.50;57.15;100229.69;4922960;28;7219;-80
2022/10/20 08:19:35;;;;;;;;;;;;;;;18.55;57.01;100235.81;4939316;28;6780;-79
2022/10/20 08:22:01;;;;;;;;;;;;;;;18.60;56.86;100239.31;4918601;28;7026;-79
2022/10/20 08:24:26;;;;;;;;;;;;;;;18.66;57.06;100238.53;4940255;28;8711;-79
2022/10/20 08:26:52;;;;;;;;;;;;;;;18.70;56.81;100251.56;4935883;28;6931;-79
2022/10/20 08:29:18;;;;;;;;;;;;;;;18.72;57.19;100252.44;4934182;28;7129;-79
2022/10/20 08:31:44;;;;;;;;;;;;;;;18.77;56.57;100273.25;4937784;28;6780;-79
2022/10/20 08:34:09;;;;;;;;;;;;;;;18.83;57.38;100293.22;4937473;28;6792;-78
2022/10/20 08:36:38;;;;;;;;;;;;;;;18.90;57.06;100282.06;4930714;28;6819;-79
2022/10/20 08:39:03;;;;;;;;;;;;;;;18.98;57.02;100288.22;4940994;28;6812;-78
2022/10/20 08:41:35;;;;;;;;;;;;;;;19.06;56.54;100285.75;4937711;28;6780;-79
2022/10/20 08:44:06;;;;;;;;;;;;;;;19.11;56.04;100278.00;4938829;28;6808;-79
2022/10/20 08:46:39;;;;;;;;;;;;;;;19.13;56.18;100256.41;4922041;28;6792;-79
2022/10/20 08:49:17;;;;;;;;;;;;;;;19.13;56.22;100256.41;4917653;28;7444;-79
2022/10/20 08:51:43;;;;;;;;;;;;;;;19.12;55.65;100266.75;4923552;28;7205;-79
2022/10/20 08:54:14;;;;;;;;;;;;;;;19.10;55.62;100260.69;4942556;28;6788;-79
2022/10/20 08:56:41;;;;;;;;;;;;;;;19.08;55.17;100247.69;4931414;28;7036;-79
2022/10/20 08:59:27;;;;;;;;;;;;;;;19.06;55.47;100239.00;4938276;28;6788;-79
2022/10/20 09:01:54;;;;;;;;;;;;;;;19.05;55.07;100220.81;4920473;28;6886;-79
2022/10/20 09:04:46;;;;;;;;;;;;;;;19.05;55.33;100215.63;4930862;28;6792;-78
2022/10/20 09:07:31;;;;;;;;;;;;;;;19.04;55.43;100213.88;4920204;28;11475;-78
2022/10/20 09:10:32;;;;;;;;;;;;;;;19.06;54.81;100204.38;4935070;28;7007;-81
2022/10/20 09:13:00;;;;;;;;;;;;;;;19.05;55.11;100207.84;4938549;28;7506;-78
2022/10/20 09:15:27;;;;;;;;;;;;;;;19.06;55.31;100207.81;4939711;28;6948;-79
2022/10/20 09:18:09;;;;;;;;;;;;;;;19.02;55.66;100213.84;4925283;28;8519;-79
2022/10/20 09:20:56;;;;;;;;;;;;;;;18.94;55.05;100226.75;4931573;28;6808;-79
2022/10/20 09:23:42;;;;;;;;;;;;;;;18.80;55.65;100228.28;4940320;28;7424;-79
2022/10/20 09:26:25;;;;;;;;;;;;;;;18.70;55.39;100254.16;4937896;28;7204;-79
2022/10/20 09:29:32;;;;;;;;;;;;;;;18.64;55.71;100251.50;4927575;28;7425;-79
2022/10/20 09:31:57;;;;;;;;;;;;;;;18.63;55.75;100267.03;4937583;28;7339;-79
2022/10/20 09:34:33;;;;;;;;;;;;;;;18.61;56.27;100277.41;4937373;28;6776;-79
2022/10/20 09:37:05;;;;;;;;;;;;;;;18.61;56.77;100282.59;4940379;28;7120;-79
2022/10/20 09:39:58;;;;;;;;;;;;;;;18.62;56.79;100260.97;4939504;28;7239;-79
2022/10/20 09:42:39;;;;;;;;;;;;;;;18.63;56.45;100252.31;4929907;28;8412;-80
2022/10/20 09:45:27;;;;;;;;;;;;;;;18.63;56.79;100249.72;4939994;28;6812;-79
2022/10/20 09:48:18;;;;;;;;;;;;;;;18.64;56.21;100261.88;4927438;28;6966;-79
2022/10/20 09:50:51;;;;;;;;;;;;;;;18.70;56.42;100289.63;4939378;28;6979;-81
2022/10/20 09:53:24;;;;;;;;;;;;;;;18.75;56.71;100285.34;4938618;28;6970;-80
2022/10/20 09:55:51;;;;;;;;;;;;;;;18.86;56.60;100288.09;4921410;28;8458;-78
2022/10/20 09:58:36;;;;;;;;;;;;;;;18.95;57.14;100267.44;4935459;28;6800;-80
2022/10/20 10:01:15;;;;;;;;;;;;;;;19.04;56.35;100263.22;4923114;28;7981;-79
2022/10/20 10:03:46;;;;;;;;;;;;;;;19.12;57.11;100259.84;4935987;28;6796;-80
2022/10/20 10:06:43;;;;;;;;;;;;;;;19.21;56.29;100259.06;4935078;28;6781;-79
2022/10/20 10:09:37;;;;;;;;;;;;;;;19.23;56.54;100254.78;4928368;28;7047;-81
2022/10/20 10:12:11;;;;;;;;;;;;;;;19.24;56.59;100256.50;4915439;28;7096;-79
2022/10/20 10:14:50;;;;;;;;;;;;;;;19.23;55.81;100244.38;4936411;28;8411;-79
2022/10/20 10:17:37;;;;;;;;;;;;;;;19.21;55.90;100246.06;4936309;28;7239;-80
2022/10/20 10:20:35;;;;;;;;;;;;;;;19.14;56.13;100259.88;4923986;28;7862;-78
2022/10/20 10:23:21;;;;;;;;;;;;;;;19.08;55.91;100260.69;4927665;28;8978;-79
2022/10/20 10:25:48;;;;;;;;;;;;;;;19.00;56.17;100260.59;4921565;28;7027;-79
2022/10/20 10:28:38;;;;;;;;;;;;;;;18.92;56.52;100258.72;4930494;28;6824;-80
2022/10/20 10:31:23;;;;;;;;;;;;;;;18.86;56.91;100259.53;4932778;28;7197;-80
2022/10/20 10:34:11;;;;;;;;;;;;;;;18.80;57.23;100254.25;4937765;28;7324;-79
2022/10/20 10:36:37;;;;;;;;;;;;;;;18.79;57.59;100244.72;4936247;28;7190;-80
2022/10/20 10:39:13;;;;;;;;;;;;;;;18.81;57.13;100248.22;4919334;28;8609;-80
2022/10/20 10:41:58;;;;;;;;;;;;;;;18.80;57.74;100231.78;4922322;28;7154;-79
2022/10/20 10:45:01;;;;;;;;;;;;;;;18.77;57.03;100228.28;4932015;28;7203;-78
2022/10/20 10:47:51;;;;;;;;;;;;;;;18.71;57.78;100227.34;4936812;28;6977;-79
2022/10/20 10:50:46;;;;;;;;;;;;;;;18.67;57.89;100225.56;4938224;28;6940;-78
2022/10/20 10:53:36;;;;;;;;;;;;;;;18.64;58.43;100216.88;4936071;28;6820;-77
2022/10/20 10:56:32;;;;;;;;;;;;;;;18.61;58.33;100220.28;4927629;28;7211;-78
2022/10/20 10:59:19;;;;;;;;;;;;;;;18.57;58.17;100234.09;4939034;28;6986;-77
2022/10/20 11:02:18;;;;;;;;;;;;;;;18.51;58.30;100242.69;4933986;28;7503;-77
2022/10/20 11:05:20;;;;;;;;;;;;;;;18.46;58.49;100258.19;4936343;28;7463;-77
2022/10/20 11:08:03;;;;;;;;;;;;;;;18.43;59.54;100250.34;4936219;28;7065;-78
2022/10/20 11:10:58;;;;;;;;;;;;;;;18.42;58.97;100251.19;4934840;28;6812;-79
2022/10/20 11:13:41;;;;;;;;;;;;;;;18.40;59.88;100252.91;4921683;28;7198;-76
2022/10/20 11:16:32;;;;;;;;;;;;;;;18.39;59.26;100247.69;4927972;28;6992;-77
2022/10/20 11:19:13;;;;;;;;;;;;;;;18.36;59.53;100240.75;4937234;28;6963;-78
2022/10/20 11:21:59;;;;;;;;;;;;;;;18.36;60.07;100243.34;4935091;28;6994;-77
2022/10/20 11:24:47;;;;;;;;;;;;;;;18.32;59.74;100245.03;4929879;28;7945;-77
2022/10/20 11:27:24;;;;;;;;;;;;;;;18.26;59.60;100236.31;4906027;29;7040;-76
2022/10/20 11:30:15;;;;;;;;;;;;;;;18.22;59.83;100225.00;4932228;28;6998;-76
2022/10/20 11:33:14;;;;;;;;;;;;;;;18.22;60.45;100205.97;4928859;28;11528;-78
2022/10/20 11:35:49;;;;;;;;;;;;;;;18.21;60.08;100194.72;4909002;28;7862;-76
2022/10/20 11:38:44;;;;;;;;;;;;;;;18.22;60.22;100191.28;4938135;28;7280;-75
2022/10/20 11:41:47;;;;;;;;;;;;;;;18.20;60.67;100182.59;4918186;28;8574;-76
2022/10/20 11:44:35;;;;;;;;;;;;;;;18.18;61.16;100192.97;4933927;28;7240;-76
2022/10/20 11:47:30;;;;;;;;;;;;;;;18.22;60.86;100193.00;4929944;28;7195;-78
2022/10/20 11:49:57;;;;;;;;;;;;;;;18.27;61.03;100178.38;4917543;28;6850;-76
2022/10/20 11:52:59;;;;;;;;;;;;;;;18.32;61.20;100181.88;4937996;28;6961;-76
2022/10/20 11:55:55;;;;;;;;;;;;;;;18.37;61.73;100169.84;4940842;28;7242;-77
2022/10/20 11:58:57;;;;;;;;;;;;;;;18.46;61.38;100185.53;4939685;28;8203;-78
2022/10/20 12:01:43;;;;;;;;;;;;;;;18.62;61.97;100175.31;4932061;28;6832;-76
2022/10/20 12:04:52;;;;;;;;;;;;;;;18.80;61.81;100164.28;4942767;28;7175;-79
2022/10/20 12:07:55;;;;;;;;;;;;;;;19.01;61.43;100161.03;4904042;28;7109;-77
2022/10/20 12:10:53;;;;;;;;;;;;;;;19.26;61.77;100170.78;4940622;28;7348;-77
2022/10/20 12:13:47;;;;;;;;;;;;;;;19.47;61.57;100164.88;4920354;28;7221;-76
2022/10/20 12:16:50;;;;;;;;;;;;;;;19.71;61.75;100153.78;4930096;28;7359;-76
2022/10/20 12:19:22;;;;;;;;;;;;;;;19.92;60.96;100151.31;4931439;28;7216;-76
2022/10/20 12:22:13;;;;;;;;;;;;;;;20.11;60.93;100144.50;4935491;28;8461;-78
2022/10/20 12:25:03;;;;;;;;;;;;;;;20.27;60.79;100145.44;4938766;28;6801;-77
2022/10/20 12:27:29;;;;;;;;;;;;;;;20.41;60.45;100145.47;4939270;28;7523;-78
2022/10/20 12:30:38;;;;;;;;;;;;;;;20.51;60.24;100154.22;4934431;28;8450;-78
2022/10/20 12:33:37;;;;;;;;;;;;;;;20.58;59.44;100144.69;4940090;28;11449;-79
2022/10/20 12:36:21;;;;;;;;;;;;;;;20.61;59.46;100145.56;4937488;28;7203;-78
2022/10/20 12:39:10;;;;;;;;;;;;;;;20.62;59.14;100130.81;4940639;28;6974;-78
2022/10/20 12:41:55;;;;;;;;;;;;;;;20.60;58.82;100128.19;4939013;28;7215;-78
2022/10/20 12:44:22;;;;;;;;;;;;;;;20.60;58.97;100132.53;4919205;28;7124;-78
2022/10/20 12:47:06;;;;;;;;;;;;;;;20.65;59.26;100125.59;4922808;28;6984;-78
